createdAt,value
2022-12-15T00:02:08.534Z,3.6
2022-12-15T00:12:08.488Z,3.6
2022-12-15T00:22:08.542Z,3.6
2022-12-15T00:27:08.501Z,3.7
2022-12-15T00:37:08.493Z,3.6
2022-12-15T00:42:08.592Z,3.6
2022-12-15T00:52:08.502Z,3.6
2022-12-15T00:57:08.498Z,3.6
2022-12-15T01:02:08.689Z,3.6
2022-12-15T01:12:08.688Z,3.4
2022-12-15T01:17:08.674Z,3.6
2022-12-15T01:27:08.751Z,3.6
2022-12-15T01:32:08.923Z,3.7
2022-12-15T01:37:08.533Z,3.6
2022-12-15T01:42:08.536Z,3.6
2022-12-15T01:52:08.555Z,3.6
2022-12-15T01:57:08.536Z,3.7
2022-12-15T02:07:08.532Z,3.7
2022-12-15T02:12:08.569Z,3.6
2022-12-15T02:17:08.540Z,3.6
2022-12-15T02:27:08.561Z,3.7
2022-12-15T02:37:08.578Z,3.7
2022-12-15T02:47:08.554Z,3.6
2022-12-15T02:57:08.770Z,3.4
2022-12-15T03:07:08.574Z,3.4
2022-12-15T03:12:08.561Z,3.4
2022-12-15T03:22:08.591Z,3.4
2022-12-15T03:27:08.569Z,3.4
2022-12-15T03:37:08.611Z,3.6
2022-12-15T03:47:08.603Z,3.6
2022-12-15T03:57:08.562Z,3.4
2022-12-15T04:02:08.818Z,3.5
2022-12-15T04:12:08.610Z,3.4
2022-12-15T04:22:09.448Z,3.5
2022-12-15T04:27:08.583Z,3.5
2022-12-15T04:37:08.621Z,3.6
2022-12-15T04:47:08.563Z,3.4
2022-12-15T04:52:08.580Z,3.4
2022-12-15T05:02:08.788Z,3.4
2022-12-15T05:12:08.559Z,3.5
2022-12-15T05:17:08.648Z,3.4
2022-12-15T05:22:08.617Z,3.4
2022-12-15T05:27:08.584Z,3.6
2022-12-15T05:37:08.589Z,3.5
2022-12-15T05:42:08.615Z,3.5
2022-12-15T05:52:08.584Z,3.4
2022-12-15T06:02:08.692Z,3.4
2022-12-15T06:12:08.587Z,3.5
2022-12-15T06:22:08.597Z,3.7
2022-12-15T06:27:08.583Z,3.6
2022-12-15T06:37:08.568Z,3.6
2022-12-15T06:42:08.607Z,3.5
2022-12-15T06:47:08.690Z,3.5
2022-12-15T06:57:08.571Z,3.6
2022-12-15T07:02:08.678Z,3.6
2022-12-15T07:07:08.586Z,3.5
2022-12-15T07:17:08.579Z,3.5
2022-12-15T07:27:08.597Z,3.6
2022-12-15T07:32:08.598Z,3.6
2022-12-15T07:42:08.594Z,3.5
2022-12-15T07:52:08.664Z,3.4
2022-12-15T08:02:08.788Z,3.4
2022-12-15T08:12:08.610Z,3.3
2022-12-15T08:22:08.571Z,3.4
2022-12-15T08:27:08.594Z,3.4
2022-12-15T08:32:08.702Z,3.3
2022-12-15T08:42:08.572Z,3.2
2022-12-15T08:47:08.590Z,3.3
2022-12-15T08:57:08.598Z,3.2
2022-12-15T09:02:08.733Z,3.1
2022-12-15T09:07:08.591Z,3.1
2022-12-15T09:17:08.754Z,3.2
2022-12-15T09:22:08.594Z,3.2
2022-12-15T09:27:08.591Z,3.1
2022-12-15T09:37:08.615Z,3.1
2022-12-15T09:47:08.590Z,3.1
2022-12-15T09:57:08.620Z,3.1
2022-12-15T10:02:08.709Z,3.1
2022-12-15T10:12:08.588Z,3.2
2022-12-15T10:17:08.718Z,3.2
2022-12-15T10:27:08.596Z,3.2
2022-12-15T10:37:08.606Z,3.3
2022-12-15T10:42:08.600Z,3.3
2022-12-15T10:52:08.591Z,3.2
2022-12-15T11:02:08.722Z,3.2
2022-12-15T11:22:08.641Z,3.2
2022-12-15T11:32:08.606Z,3.2
2022-12-15T11:42:08.647Z,3.2
2022-12-15T11:47:08.597Z,3.1
2022-12-15T11:52:08.600Z,3.2
2022-12-15T11:57:08.611Z,3.2
2022-12-15T12:02:08.802Z,3.4
2022-12-15T12:12:08.611Z,3.4
2022-12-15T12:22:08.670Z,3.5
2022-12-15T12:27:08.635Z,3.6
2022-12-15T12:37:08.607Z,3.6
2022-12-15T12:47:08.651Z,3.7
2022-12-15T12:52:08.615Z,3.7
2022-12-15T12:57:08.624Z,3.7
2022-12-15T13:02:08.691Z,3.7
2022-12-15T13:07:12.764Z,3.7
2022-12-15T13:17:26.043Z,3.4
2022-12-15T13:22:08.633Z,3.4
2022-12-15T13:32:08.759Z,3.4
2022-12-15T13:37:08.631Z,3.5
2022-12-15T13:47:08.631Z,3.6
2022-12-15T13:57:08.720Z,3.7
2022-12-15T14:02:08.697Z,3.5
2022-12-15T14:07:08.641Z,3.6
2022-12-15T14:17:08.697Z,3.4
2022-12-15T14:22:08.631Z,3.5
2022-12-15T14:27:08.725Z,3.5
2022-12-15T14:32:08.719Z,3.7
2022-12-15T14:37:08.665Z,3.5
2022-12-15T14:47:08.644Z,3.4
2022-12-15T14:57:08.672Z,3.4
2022-12-15T15:03:09.089Z,3.2
2022-12-15T15:07:08.639Z,3.4
2022-12-15T15:17:08.679Z,3.4
2022-12-15T15:27:08.841Z,3.3
2022-12-15T15:37:11.338Z,3.5
2022-12-15T15:47:08.630Z,3.2
2022-12-15T15:52:08.640Z,3.3
2022-12-15T16:02:08.904Z,3.3
2022-12-15T16:07:08.643Z,3.4
2022-12-15T16:17:08.627Z,3.5
2022-12-15T16:22:08.672Z,3.4
2022-12-15T16:27:08.646Z,3.3
2022-12-15T16:37:08.635Z,3.2
2022-12-15T16:42:08.657Z,3.3
2022-12-15T16:47:08.650Z,3.3
2022-12-15T16:57:08.635Z,3.3
2022-12-15T17:02:08.788Z,3.3
2022-12-15T17:12:08.827Z,3.4
2022-12-15T17:17:08.667Z,3.4
2022-12-15T17:27:08.726Z,3.3
2022-12-15T17:37:08.630Z,3.3
2022-12-15T17:42:08.638Z,3.2
2022-12-15T17:47:09.184Z,3.2
2022-12-15T17:57:08.663Z,3.2
2022-12-15T18:07:08.661Z,3.3
2022-12-15T18:12:08.651Z,3.3
2022-12-15T18:22:08.654Z,3.2
2022-12-15T18:32:08.669Z,3.2
2022-12-15T18:42:08.653Z,3.2
2022-12-15T18:52:08.662Z,3.1
2022-12-15T18:57:08.651Z,3.1
2022-12-15T19:07:08.657Z,3.2
2022-12-15T19:17:08.682Z,3.1
2022-12-15T19:27:08.646Z,3.2
2022-12-15T19:37:08.679Z,3.2
2022-12-15T19:47:08.644Z,3.1
2022-12-15T19:57:08.673Z,3.2
2022-12-15T20:07:08.633Z,3.1
2022-12-15T20:12:08.649Z,3.1
2022-12-15T20:17:08.668Z,3.1
2022-12-15T20:27:11.803Z,3.1
2022-12-15T20:32:08.889Z,3.1
2022-12-15T20:42:08.671Z,3.1
2022-12-15T20:47:08.653Z,3.1
2022-12-15T20:57:08.663Z,3.2
2022-12-15T21:02:08.926Z,3.1
2022-12-15T21:12:09.403Z,3.1
2022-12-15T21:22:08.680Z,3.1
2022-12-15T21:27:08.656Z,3.1
2022-12-15T21:32:08.657Z,3.1
2022-12-15T21:37:08.654Z,3
2022-12-15T21:47:08.685Z,3.1
2022-12-15T21:57:08.661Z,3.1
2022-12-15T22:07:08.671Z,3.1
2022-12-15T22:12:08.661Z,2.9
2022-12-15T22:22:08.644Z,3
2022-12-15T22:27:08.685Z,3
2022-12-15T22:37:08.647Z,2.9
2022-12-15T22:42:08.666Z,2.9
2022-12-15T22:52:08.698Z,2.9
2022-12-15T23:02:08.744Z,3
2022-12-15T23:12:08.679Z,2.9
2022-12-15T23:17:08.660Z,2.8
2022-12-15T23:27:08.660Z,2.8
2022-12-15T23:37:08.672Z,2.8
2022-12-15T23:42:08.665Z,2.8
2022-12-15T23:52:08.662Z,2.9
